createdAt,value
2018-12-19T00:01:55.537Z,3.87
2018-12-19T00:04:30.970Z,3.97
2018-12-19T00:07:09.325Z,3.90
2018-12-19T00:09:47.324Z,4.10
2018-12-19T00:12:27.713Z,3.80
2018-12-19T00:18:04.347Z,4.13
2018-12-19T00:20:40.708Z,3.83
2018-12-19T00:37:56.323Z,4.00
2018-12-19T00:40:30.148Z,3.87
2018-12-19T00:46:04.683Z,4.37
2018-12-19T00:48:39.216Z,4.10
2018-12-19T00:51:23.597Z,4.03
2018-12-19T00:56:48.129Z,4.37
2018-12-19T00:59:22.596Z,4.67
2018-12-19T01:01:52.280Z,4.73
2018-12-19T01:07:25.917Z,5.00
2018-12-19T01:10:05.783Z,4.80
2018-12-19T01:12:34.216Z,4.63
2018-12-19T01:15:02.300Z,4.70
2018-12-19T01:17:30.354Z,4.43
2018-12-19T01:20:05.089Z,4.57
2018-12-19T01:22:33.498Z,4.67
2018-12-19T01:33:49.006Z,4.30
2018-12-19T01:36:17.098Z,4.83
2018-12-19T01:38:45.150Z,3.83
2018-12-19T01:50:16.282Z,3.90
2018-12-19T01:53:01.432Z,3.87
2018-12-19T01:55:40.091Z,3.73
2018-12-19T01:58:21.858Z,3.90
2018-12-19T02:00:57.396Z,4.10
2018-12-19T02:06:30.236Z,4.23
2018-12-19T02:09:10.082Z,3.90
2018-12-19T02:11:38.424Z,4.30
2018-12-19T02:14:13.152Z,3.57
2018-12-19T02:16:51.083Z,4.07
2018-12-19T02:28:11.488Z,4.83
2018-12-19T02:30:49.325Z,3.87
2018-12-19T02:36:13.829Z,4.47
2018-12-19T02:41:37.148Z,4.60
2018-12-19T02:47:08.680Z,4.60
2018-12-19T02:49:40.225Z,4.43
2018-12-19T02:55:04.434Z,4.77
2018-12-19T02:57:32.544Z,4.73
2018-12-19T03:00:00.659Z,5.43
2018-12-19T03:08:12.023Z,5.43
2018-12-19T03:10:50.231Z,5.33
2018-12-19T03:24:45.409Z,6.60
2018-12-19T03:27:20.164Z,6.73
2018-12-19T03:38:27.019Z,8.40
2018-12-19T03:40:55.181Z,8.70
2018-12-19T03:43:23.368Z,8.93
2018-12-19T03:45:51.586Z,9.53
2018-12-19T03:48:25.052Z,11.03
2018-12-19T03:50:53.287Z,11.17
2018-12-19T03:53:21.786Z,10.73
2018-12-19T03:55:49.843Z,10.97
2018-12-19T03:58:17.972Z,12.83
2018-12-19T04:00:46.047Z,12.80
2018-12-19T04:03:14.258Z,13.17
2018-12-19T04:05:42.759Z,14.20
2018-12-19T04:08:17.921Z,14.27
2018-12-19T04:10:46.184Z,14.37
2018-12-19T04:13:17.373Z,14.57
2018-12-19T04:18:49.980Z,14.63
2018-12-19T04:24:14.377Z,14.90
2018-12-19T04:29:38.155Z,16.07
2018-12-19T04:32:06.297Z,16.43
2018-12-19T04:34:34.514Z,15.60
2018-12-19T04:37:02.806Z,16.13
2018-12-19T04:39:37.148Z,16.43
2018-12-19T04:45:01.230Z,15.23
2018-12-19T04:47:32.639Z,17.07
2018-12-19T04:50:01.823Z,17.40
2018-12-19T04:52:29.922Z,17.00
2018-12-19T04:57:59.170Z,16.33
2018-12-19T05:06:19.195Z,18.50
2018-12-19T05:08:49.121Z,17.97
2018-12-19T05:14:19.644Z,18.30
2018-12-19T05:22:46.411Z,20.07
2018-12-19T05:25:22.766Z,18.63
2018-12-19T05:30:37.476Z,17.67
2018-12-19T05:33:36.486Z,19.63
2018-12-19T05:39:00.076Z,18.93
2018-12-19T05:41:28.232Z,18.87
2018-12-19T05:43:56.323Z,20.30
2018-12-19T05:46:24.554Z,19.20
2018-12-19T05:48:52.689Z,19.70
2018-12-19T05:54:07.598Z,20.93
2018-12-19T05:56:38.881Z,19.50
2018-12-19T06:04:56.019Z,20.27
2018-12-19T06:10:26.223Z,21.40
2018-12-19T06:12:54.038Z,21.60
2018-12-19T06:15:34.198Z,20.93
2018-12-19T06:23:54.608Z,20.20
2018-12-19T06:29:18.261Z,19.97
2018-12-19T06:31:46.363Z,20.40
2018-12-19T06:34:14.432Z,20.70
2018-12-19T06:36:43.327Z,19.93
2018-12-19T06:39:11.553Z,19.50
2018-12-19T06:41:39.660Z,20.03
2018-12-19T06:44:07.787Z,17.90
2018-12-19T06:46:35.922Z,19.47
2018-12-19T06:51:54.545Z,18.23
2018-12-19T06:54:22.867Z,18.27
2018-12-19T06:56:51.011Z,18.27
2018-12-19T06:59:19.651Z,18.30
2018-12-19T07:01:49.236Z,18.13
2018-12-19T07:04:17.870Z,17.47
2018-12-19T07:06:47.555Z,16.53
2018-12-19T07:09:28.166Z,16.37
2018-12-19T07:12:06.550Z,15.77
2018-12-19T07:17:21.664Z,15.10
2018-12-19T07:19:49.805Z,15.43
2018-12-19T07:22:23.533Z,15.77
2018-12-19T07:24:53.407Z,15.60
2018-12-19T07:27:33.538Z,15.63
2018-12-19T07:30:14.289Z,16.10
2018-12-19T07:32:42.700Z,16.00
2018-12-19T07:35:23.524Z,15.10
2018-12-19T07:37:59.265Z,15.80
2018-12-19T07:40:34.082Z,16.50
2018-12-19T07:43:14.057Z,14.80
2018-12-19T07:45:45.478Z,15.73
2018-12-19T07:48:13.656Z,16.33
2018-12-19T07:53:38.509Z,15.53
2018-12-19T07:56:18.125Z,16.53
2018-12-19T08:01:49.508Z,15.53
2018-12-19T08:04:17.905Z,15.10
2018-12-19T08:06:46.015Z,16.53
2018-12-19T08:09:14.235Z,15.90
2018-12-19T08:11:42.383Z,15.40
2018-12-19T08:14:10.554Z,14.53
2018-12-19T08:16:38.691Z,14.97
2018-12-19T08:19:06.799Z,14.60
2018-12-19T08:21:35.001Z,15.13
2018-12-19T08:24:03.155Z,14.73
2018-12-19T08:26:31.317Z,13.80
2018-12-19T08:28:59.565Z,15.23
2018-12-19T08:31:27.918Z,14.33
2018-12-19T08:33:56.662Z,14.53
2018-12-19T08:36:24.846Z,15.80
2018-12-19T08:38:53.019Z,13.60
2018-12-19T08:41:21.153Z,14.47
2018-12-19T08:43:55.639Z,13.87
2018-12-19T08:46:29.436Z,12.93
2018-12-19T08:48:57.664Z,12.60
2018-12-19T08:51:37.550Z,12.93
2018-12-19T08:54:17.737Z,12.30
2018-12-19T08:56:58.263Z,11.80
2018-12-19T08:59:38.624Z,11.50
2018-12-19T09:05:09.488Z,11.57
2018-12-19T09:10:42.552Z,13.27
2018-12-19T09:13:20.491Z,12.03
2018-12-19T09:16:00.669Z,12.00
2018-12-19T09:18:37.191Z,12.10
2018-12-19T09:21:12.108Z,12.80
2018-12-19T09:23:50.160Z,12.60
2018-12-19T09:26:18.901Z,14.80
2018-12-19T09:28:47.000Z,13.40
2018-12-19T09:31:15.075Z,11.67
2018-12-19T09:33:43.228Z,11.23
2018-12-19T09:36:11.522Z,12.13
2018-12-19T09:38:40.996Z,11.27
2018-12-19T09:41:12.493Z,10.23
2018-12-19T09:43:39.631Z,9.93
2018-12-19T09:46:07.671Z,9.90
2018-12-19T09:48:35.751Z,10.63
2018-12-19T09:51:03.795Z,9.57
2018-12-19T09:53:31.980Z,8.30
2018-12-19T09:56:00.091Z,8.87
2018-12-19T09:58:28.180Z,8.60
2018-12-19T10:00:56.286Z,8.47
2018-12-19T10:03:24.471Z,7.67
2018-12-19T10:05:52.584Z,7.87
2018-12-19T10:08:20.627Z,8.00
2018-12-19T10:10:48.722Z,7.60
2018-12-19T10:13:16.792Z,7.07
2018-12-19T10:15:44.844Z,8.60
2018-12-19T10:18:12.916Z,7.67
2018-12-19T10:20:41.047Z,7.30
2018-12-19T10:23:09.465Z,7.80
2018-12-19T10:25:37.604Z,7.83
2018-12-19T10:28:05.718Z,7.10
2018-12-19T10:30:38.391Z,8.23
2018-12-19T10:33:06.480Z,7.60
2018-12-19T10:35:34.583Z,7.50
2018-12-19T10:38:02.791Z,7.20
2018-12-19T10:40:31.220Z,8.37
2018-12-19T10:42:59.308Z,7.93
2018-12-19T10:45:27.449Z,8.97
2018-12-19T10:47:55.593Z,7.57
2018-12-19T10:50:23.775Z,6.97
2018-12-19T10:52:52.241Z,6.40
2018-12-19T10:55:21.240Z,6.90
2018-12-19T10:57:49.345Z,6.97
2018-12-19T11:00:23.151Z,7.30
2018-12-19T11:02:51.558Z,7.10
2018-12-19T11:05:23.082Z,7.23
2018-12-19T11:22:34.394Z,6.13
2018-12-19T11:27:57.775Z,6.73
2018-12-19T11:30:26.149Z,6.50
2018-12-19T11:32:56.374Z,5.80
2018-12-19T11:35:25.179Z,5.67
2018-12-19T11:37:53.346Z,5.97
2018-12-19T11:40:21.551Z,5.97
2018-12-19T11:42:49.773Z,5.70
2018-12-19T11:45:21.342Z,5.67
2018-12-19T11:47:55.883Z,5.63
2018-12-19T11:50:24.183Z,6.03
2018-12-19T11:52:52.408Z,5.50
2018-12-19T11:55:20.757Z,5.17
2018-12-19T11:58:01.004Z,5.87
2018-12-19T12:00:41.025Z,5.37
2018-12-19T12:06:17.343Z,5.60
2018-12-19T12:08:47.201Z,6.00
2018-12-19T12:11:33.786Z,5.70
2018-12-19T12:14:03.130Z,5.37
2018-12-19T12:16:32.992Z,6.60
2018-12-19T12:19:01.686Z,6.07
2018-12-19T12:24:39.107Z,6.10
2018-12-19T12:27:08.487Z,5.93
2018-12-19T12:29:38.505Z,5.60
2018-12-19T12:32:06.841Z,5.63
2018-12-19T12:34:35.277Z,5.73
2018-12-19T12:37:07.341Z,5.23
2018-12-19T12:42:22.158Z,6.37
2018-12-19T12:44:51.551Z,5.73
2018-12-19T12:47:20.329Z,5.27
2018-12-19T12:49:58.520Z,5.43
2018-12-19T12:52:26.891Z,5.20
2018-12-19T12:54:55.747Z,5.60
2018-12-19T12:57:24.100Z,5.57
2018-12-19T12:59:52.197Z,5.17
2018-12-19T13:02:20.363Z,5.07
2018-12-19T13:04:48.448Z,4.87
2018-12-19T13:07:16.514Z,4.87
2018-12-19T13:09:44.553Z,4.87
2018-12-19T13:12:13.152Z,5.20
2018-12-19T13:14:41.287Z,7.20
2018-12-19T13:17:09.451Z,5.40
2018-12-19T13:19:37.787Z,4.73
2018-12-19T13:22:05.961Z,4.50
2018-12-19T13:24:33.972Z,5.23
2018-12-19T13:27:02.070Z,5.70
2018-12-19T13:29:30.295Z,4.57
2018-12-19T13:31:59.004Z,5.60
2018-12-19T14:30:31.490Z,4.27
2018-12-19T14:33:00.072Z,3.97
2018-12-19T14:35:28.559Z,3.27
2018-12-19T14:38:08.569Z,3.90
2018-12-19T14:43:49.484Z,3.67
2018-12-19T14:52:11.555Z,3.67
2018-12-19T14:54:47.763Z,2.80
2018-12-19T14:57:25.684Z,2.90
2018-12-19T14:59:54.328Z,3.43
2018-12-19T15:02:28.709Z,3.83
2018-12-19T15:04:56.830Z,3.50
2018-12-19T15:07:25.007Z,3.33
2018-12-19T15:09:53.268Z,4.37
2018-12-19T15:12:27.137Z,3.20
2018-12-19T15:18:03.530Z,3.57
2018-12-19T15:26:33.573Z,3.50
2018-12-19T15:29:12.339Z,3.40
2018-12-19T15:31:50.306Z,3.10
2018-12-19T15:34:19.401Z,3.63
2018-12-19T15:36:47.734Z,3.83
2018-12-19T15:39:28.406Z,3.60
2018-12-19T15:44:53.395Z,3.37
2018-12-19T15:47:34.111Z,3.40
2018-12-19T15:50:14.426Z,3.60
2018-12-19T15:52:42.578Z,3.27
2018-12-19T15:55:10.836Z,3.07
2018-12-19T15:57:39.187Z,3.17
2018-12-19T16:00:20.199Z,3.30
2018-12-19T16:02:55.238Z,3.17
2018-12-19T17:04:19.265Z,4.20
2018-12-19T17:15:36.346Z,3.60
2018-12-19T17:21:11.908Z,3.87
2018-12-19T17:23:56.183Z,3.67
2018-12-19T17:26:39.544Z,3.40
2018-12-19T17:29:14.364Z,3.23
2018-12-19T17:34:35.700Z,3.50
2018-12-19T17:37:10.124Z,3.27
2018-12-19T17:48:33.544Z,3.27
2018-12-19T17:51:17.449Z,2.97
2018-12-19T17:56:49.908Z,3.73
2018-12-19T18:02:24.984Z,3.70
2018-12-19T18:05:03.355Z,3.30
2018-12-19T18:07:46.336Z,3.40
2018-12-19T18:10:27.496Z,3.30
2018-12-19T18:13:06.526Z,3.27
2018-12-19T18:21:37.569Z,3.10
2018-12-19T18:24:16.572Z,2.97
2018-12-19T19:02:02.271Z,3.60
2018-12-19T19:13:12.078Z,3.50
2018-12-19T19:15:43.515Z,3.63
2018-12-19T19:21:17.237Z,3.67
2018-12-19T19:23:53.767Z,3.53
2018-12-19T19:29:32.585Z,3.40
2018-12-19T19:32:07.829Z,3.50
2018-12-19T19:34:48.528Z,3.20
2018-12-19T19:37:17.981Z,3.73
2018-12-19T19:39:46.393Z,3.73
2018-12-19T19:42:17.969Z,3.23
2018-12-19T19:44:46.755Z,3.40
2018-12-19T19:47:26.471Z,3.70
2018-12-19T19:49:55.173Z,3.43
2018-12-19T19:52:24.270Z,3.70
2018-12-19T19:54:53.130Z,3.80
2018-12-19T19:57:22.378Z,4.00
2018-12-19T19:59:51.134Z,3.33
2018-12-19T20:02:19.599Z,3.93
2018-12-19T20:04:48.041Z,4.30
2018-12-19T20:07:17.669Z,3.93
2018-12-19T20:09:46.683Z,4.17
2018-12-19T20:12:15.511Z,3.70
2018-12-19T20:14:44.483Z,4.00
2018-12-19T20:17:18.282Z,4.40
2018-12-19T20:19:46.701Z,4.40
2018-12-19T20:22:15.077Z,4.93
2018-12-19T20:24:45.109Z,4.33
2018-12-19T20:27:13.568Z,4.70
2018-12-19T20:29:41.947Z,4.80
2018-12-19T20:32:11.107Z,5.30
2018-12-19T20:43:39.878Z,6.30
2018-12-19T20:46:17.222Z,6.50
2018-12-19T20:49:14.297Z,6.63
2018-12-19T20:51:52.964Z,6.90
2018-12-19T20:54:21.331Z,6.30
2018-12-19T20:56:58.247Z,6.50
2018-12-19T20:59:27.662Z,7.00
2018-12-19T21:01:56.344Z,7.27
2018-12-19T21:04:26.088Z,6.93
2018-12-19T21:06:55.941Z,6.90
2018-12-19T21:09:26.807Z,7.20
2018-12-19T21:11:55.890Z,7.00
2018-12-19T21:14:26.255Z,7.40
2018-12-19T21:17:00.224Z,7.07
2018-12-19T21:22:59.298Z,7.33
2018-12-19T21:25:30.796Z,6.87
2018-12-19T21:27:59.247Z,6.97
2018-12-19T21:30:27.841Z,7.43
2018-12-19T21:32:57.439Z,6.67
2018-12-19T21:35:26.685Z,7.30
2018-12-19T21:37:56.502Z,8.30
2018-12-19T21:40:25.002Z,7.67
2018-12-19T21:42:56.544Z,7.60
2018-12-19T21:45:25.789Z,8.70
2018-12-19T21:47:55.305Z,8.70
2018-12-19T21:50:23.728Z,8.83
2018-12-19T21:52:53.260Z,9.17
2018-12-19T21:58:19.414Z,7.73
2018-12-19T22:04:02.436Z,9.47
2018-12-19T22:06:31.848Z,9.30
2018-12-19T22:09:12.773Z,10.13
2018-12-19T22:11:50.872Z,14.87
2018-12-19T22:14:21.590Z,16.07
2018-12-19T22:16:58.523Z,16.73
2018-12-19T22:19:28.164Z,17.87
2018-12-19T22:21:56.702Z,14.40
2018-12-19T22:24:28.293Z,12.00
2018-12-19T22:27:00.602Z,11.00
2018-12-19T22:29:32.609Z,9.50
2018-12-19T22:32:03.178Z,9.70
2018-12-19T22:34:31.647Z,9.30
2018-12-19T22:37:01.366Z,9.63
2018-12-19T22:39:34.949Z,9.57
2018-12-19T22:42:08.025Z,9.70
2018-12-19T22:44:36.983Z,10.83
2018-12-19T22:47:06.134Z,11.37
2018-12-19T22:49:34.851Z,10.83
2018-12-19T22:52:03.483Z,11.30
2018-12-19T22:54:32.379Z,10.97
2018-12-19T22:57:01.186Z,11.17
2018-12-19T22:59:29.880Z,10.17
2018-12-19T23:02:04.057Z,11.40
2018-12-19T23:04:32.701Z,10.90
2018-12-19T23:07:02.463Z,10.27
2018-12-19T23:09:31.111Z,10.13
2018-12-19T23:12:00.944Z,10.80
2018-12-19T23:14:30.838Z,11.03
2018-12-19T23:17:10.725Z,11.30
2018-12-19T23:19:42.066Z,11.57
2018-12-19T23:22:14.360Z,10.73
2018-12-19T23:24:43.023Z,11.70
2018-12-19T23:27:11.355Z,11.57
2018-12-19T23:32:37.642Z,12.27
2018-12-19T23:35:06.019Z,12.40
2018-12-19T23:37:36.600Z,12.40
2018-12-19T23:40:05.038Z,11.03
2018-12-19T23:42:33.379Z,11.93
2018-12-19T23:45:02.188Z,11.80
2018-12-19T23:47:30.736Z,12.57
2018-12-19T23:49:59.202Z,12.47
2018-12-19T23:52:27.672Z,11.50
2018-12-19T23:54:56.093Z,11.37
2018-12-19T23:57:26.395Z,13.50
2018-12-19T23:59:54.968Z,14.70
